Terminal Aerodrome Forecast
Issued by NWS Northern Indiana

Home | Current Version | Previous Version | Text Only | Print | Product List | Glossary Off
Versions: 1 2 3 4 5 6 7 8 9 10 11 12 13 14 15 16 17

000
FTUS43 KIWX 012340
TAFFWA
TAF
KFWA 012340Z 0200/0224 27009KT P6SM BKN070
     FM020200 22005KT P6SM SCT080
     FM021400 23012KT P6SM SCT120 BKN200
     FM021700 23013G21KT P6SM SCT040 BKN150=

USA.gov is the U.S. government's official web portal to all federal, state and local government web resources and services.